sensor_id;sensor_type;location;lat;lon;timestamp;P1;durP1;ratioP1;P2;durP2;ratioP2
72325;SDS011;60278;47.980;18.780;2024-02-26T00:01:53;24.00;;;14.23;;
72325;SDS011;60278;47.980;18.780;2024-02-26T00:04:55;20.83;;;14.02;;
72325;SDS011;60278;47.980;18.780;2024-02-26T00:07:58;21.33;;;13.47;;
72325;SDS011;60278;47.980;18.780;2024-02-26T00:11:04;23.08;;;12.75;;
72325;SDS011;60278;47.980;18.780;2024-02-26T00:14:06;19.75;;;12.05;;
72325;SDS011;60278;47.980;18.780;2024-02-26T00:17:08;20.02;;;12.02;;
72325;SDS011;60278;47.980;18.780;2024-02-26T00:20:10;20.48;;;13.52;;
72325;SDS011;60278;47.980;18.780;2024-02-26T00:23:14;19.57;;;11.77;;
72325;SDS011;60278;47.980;18.780;2024-02-26T00:26:16;20.45;;;12.95;;
72325;SDS011;60278;47.980;18.780;2024-02-26T00:29:19;21.70;;;12.77;;
72325;SDS011;60278;47.980;18.780;2024-02-26T00:32:21;18.67;;;11.88;;
72325;SDS011;60278;47.980;18.780;2024-02-26T00:35:23;17.85;;;11.75;;
72325;SDS011;60278;47.980;18.780;2024-02-26T00:38:25;18.23;;;12.00;;
72325;SDS011;60278;47.980;18.780;2024-02-26T00:41:27;19.33;;;12.10;;
72325;SDS011;60278;47.980;18.780;2024-02-26T00:44:29;22.00;;;13.90;;
72325;SDS011;60278;47.980;18.780;2024-02-26T00:47:31;22.48;;;13.20;;
72325;SDS011;60278;47.980;18.780;2024-02-26T00:50:34;26.27;;;14.23;;
72325;SDS011;60278;47.980;18.780;2024-02-26T00:53:36;22.87;;;14.23;;
72325;SDS011;60278;47.980;18.780;2024-02-26T00:56:38;21.58;;;13.25;;
72325;SDS011;60278;47.980;18.780;2024-02-26T00:59:40;19.70;;;12.70;;
72325;SDS011;60278;47.980;18.780;2024-02-26T01:02:42;24.60;;;14.05;;
72325;SDS011;60278;47.980;18.780;2024-02-26T01:05:44;23.95;;;15.57;;
72325;SDS011;60278;47.980;18.780;2024-02-26T01:08:47;23.10;;;13.40;;
72325;SDS011;60278;47.980;18.780;2024-02-26T01:11:49;21.48;;;12.98;;
72325;SDS011;60278;47.980;18.780;2024-02-26T01:14:51;21.73;;;14.50;;
72325;SDS011;60278;47.980;18.780;2024-02-26T01:17:53;27.23;;;15.45;;
72325;SDS011;60278;47.980;18.780;2024-02-26T01:20:55;28.88;;;17.27;;
72325;SDS011;60278;47.980;18.780;2024-02-26T01:23:57;25.13;;;15.43;;
72325;SDS011;60278;47.980;18.780;2024-02-26T01:26:59;23.00;;;15.00;;
72325;SDS011;60278;47.980;18.780;2024-02-26T01:30:03;87.28;;;47.55;;
72325;SDS011;60278;47.980;18.780;2024-02-26T01:33:06;23.52;;;14.70;;
72325;SDS011;60278;47.980;18.780;2024-02-26T01:36:08;20.63;;;13.18;;
72325;SDS011;60278;47.980;18.780;2024-02-26T01:39:11;24.43;;;13.93;;
72325;SDS011;60278;47.980;18.780;2024-02-26T01:42:14;21.15;;;13.07;;
72325;SDS011;60278;47.980;18.780;2024-02-26T01:45:16;23.77;;;13.63;;
72325;SDS011;60278;47.980;18.780;2024-02-26T01:48:25;21.30;;;13.05;;
72325;SDS011;60278;47.980;18.780;2024-02-26T01:51:28;25.10;;;14.68;;
72325;SDS011;60278;47.980;18.780;2024-02-26T01:54:31;23.13;;;13.67;;
72325;SDS011;60278;47.980;18.780;2024-02-26T01:57:33;22.52;;;14.73;;
72325;SDS011;60278;47.980;18.780;2024-02-26T02:00:35;22.88;;;14.27;;
72325;SDS011;60278;47.980;18.780;2024-02-26T02:03:38;21.63;;;12.43;;
72325;SDS011;60278;47.980;18.780;2024-02-26T02:06:40;25.67;;;13.70;;
72325;SDS011;60278;47.980;18.780;2024-02-26T02:09:43;21.47;;;12.37;;
72325;SDS011;60278;47.980;18.780;2024-02-26T02:12:45;27.63;;;14.27;;
72325;SDS011;60278;47.980;18.780;2024-02-26T02:15:47;25.90;;;14.23;;
72325;SDS011;60278;47.980;18.780;2024-02-26T02:18:49;25.27;;;14.82;;
72325;SDS011;60278;47.980;18.780;2024-02-26T02:21:52;27.05;;;16.08;;
72325;SDS011;60278;47.980;18.780;2024-02-26T02:24:54;30.40;;;16.63;;
72325;SDS011;60278;47.980;18.780;2024-02-26T02:27:56;31.88;;;17.00;;
72325;SDS011;60278;47.980;18.780;2024-02-26T02:30:58;32.50;;;18.77;;
72325;SDS011;60278;47.980;18.780;2024-02-26T02:34:01;31.05;;;15.60;;
72325;SDS011;60278;47.980;18.780;2024-02-26T02:37:04;30.25;;;16.58;;
72325;SDS011;60278;47.980;18.780;2024-02-26T02:40:06;27.50;;;16.60;;
72325;SDS011;60278;47.980;18.780;2024-02-26T02:43:08;28.48;;;15.52;;
72325;SDS011;60278;47.980;18.780;2024-02-26T02:46:10;26.60;;;15.25;;
72325;SDS011;60278;47.980;18.780;2024-02-26T02:49:13;26.42;;;15.73;;
72325;SDS011;60278;47.980;18.780;2024-02-26T02:52:16;29.35;;;16.92;;
72325;SDS011;60278;47.980;18.780;2024-02-26T02:55:18;25.40;;;13.80;;
72325;SDS011;60278;47.980;18.780;2024-02-26T02:58:20;27.58;;;15.98;;
72325;SDS011;60278;47.980;18.780;2024-02-26T03:01:22;28.50;;;15.63;;
72325;SDS011;60278;47.980;18.780;2024-02-26T03:04:25;27.20;;;15.75;;
72325;SDS011;60278;47.980;18.780;2024-02-26T03:07:27;31.75;;;17.30;;
72325;SDS011;60278;47.980;18.780;2024-02-26T03:10:29;33.00;;;17.13;;
72325;SDS011;60278;47.980;18.780;2024-02-26T03:13:31;29.17;;;17.13;;
72325;SDS011;60278;47.980;18.780;2024-02-26T03:16:33;33.35;;;17.50;;
72325;SDS011;60278;47.980;18.780;2024-02-26T03:19:35;32.83;;;17.65;;
72325;SDS011;60278;47.980;18.780;2024-02-26T03:22:40;28.90;;;16.58;;
72325;SDS011;60278;47.980;18.780;2024-02-26T03:25:44;23.63;;;14.50;;
72325;SDS011;60278;47.980;18.780;2024-02-26T03:28:47;27.88;;;16.25;;
72325;SDS011;60278;47.980;18.780;2024-02-26T03:31:50;29.67;;;18.75;;
72325;SDS011;60278;47.980;18.780;2024-02-26T03:34:52;25.77;;;15.85;;
72325;SDS011;60278;47.980;18.780;2024-02-26T03:37:56;25.58;;;15.25;;
72325;SDS011;60278;47.980;18.780;2024-02-26T03:40:58;25.27;;;14.80;;
72325;SDS011;60278;47.980;18.780;2024-02-26T03:44:01;25.88;;;15.13;;
72325;SDS011;60278;47.980;18.780;2024-02-26T03:47:03;26.45;;;14.95;;
72325;SDS011;60278;47.980;18.780;2024-02-26T03:50:05;26.50;;;14.93;;
72325;SDS011;60278;47.980;18.780;2024-02-26T03:53:08;25.65;;;14.98;;
72325;SDS011;60278;47.980;18.780;2024-02-26T03:56:15;25.63;;;14.77;;
72325;SDS011;60278;47.980;18.780;2024-02-26T03:59:17;26.45;;;16.23;;
72325;SDS011;60278;47.980;18.780;2024-02-26T04:02:19;32.78;;;19.40;;
72325;SDS011;60278;47.980;18.780;2024-02-26T04:05:22;30.75;;;18.92;;
72325;SDS011;60278;47.980;18.780;2024-02-26T04:08:24;23.95;;;15.05;;
72325;SDS011;60278;47.980;18.780;2024-02-26T04:11:26;22.47;;;13.93;;
72325;SDS011;60278;47.980;18.780;2024-02-26T04:14:28;25.15;;;15.23;;
72325;SDS011;60278;47.980;18.780;2024-02-26T04:17:31;24.85;;;14.68;;
72325;SDS011;60278;47.980;18.780;2024-02-26T04:20:33;21.73;;;13.55;;
72325;SDS011;60278;47.980;18.780;2024-02-26T04:23:35;22.25;;;13.75;;
72325;SDS011;60278;47.980;18.780;2024-02-26T04:26:37;20.97;;;14.20;;
72325;SDS011;60278;47.980;18.780;2024-02-26T04:29:39;25.05;;;14.23;;
72325;SDS011;60278;47.980;18.780;2024-02-26T04:32:41;23.67;;;14.23;;
72325;SDS011;60278;47.980;18.780;2024-02-26T04:35:43;24.08;;;14.77;;
72325;SDS011;60278;47.980;18.780;2024-02-26T04:38:45;26.73;;;16.00;;
72325;SDS011;60278;47.980;18.780;2024-02-26T04:41:48;28.23;;;15.67;;
72325;SDS011;60278;47.980;18.780;2024-02-26T04:44:50;26.15;;;15.45;;
72325;SDS011;60278;47.980;18.780;2024-02-26T04:47:52;23.65;;;14.77;;
72325;SDS011;60278;47.980;18.780;2024-02-26T04:50:54;22.98;;;13.88;;
72325;SDS011;60278;47.980;18.780;2024-02-26T04:53:56;19.10;;;11.93;;
72325;SDS011;60278;47.980;18.780;2024-02-26T04:56:58;21.27;;;12.07;;
72325;SDS011;60278;47.980;18.780;2024-02-26T05:00:01;19.17;;;11.50;;
72325;SDS011;60278;47.980;18.780;2024-02-26T05:03:03;18.63;;;11.05;;
72325;SDS011;60278;47.980;18.780;2024-02-26T05:06:05;16.55;;;10.35;;
72325;SDS011;60278;47.980;18.780;2024-02-26T05:09:07;17.73;;;10.13;;
72325;SDS011;60278;47.980;18.780;2024-02-26T05:12:10;16.07;;;9.30;;
72325;SDS011;60278;47.980;18.780;2024-02-26T05:15:12;13.68;;;8.13;;
72325;SDS011;60278;47.980;18.780;2024-02-26T05:18:20;16.60;;;9.20;;
72325;SDS011;60278;47.980;18.780;2024-02-26T05:21:23;14.88;;;9.15;;
72325;SDS011;60278;47.980;18.780;2024-02-26T05:24:25;11.80;;;7.70;;
72325;SDS011;60278;47.980;18.780;2024-02-26T05:27:28;13.77;;;7.50;;
72325;SDS011;60278;47.980;18.780;2024-02-26T05:30:30;15.05;;;9.48;;
72325;SDS011;60278;47.980;18.780;2024-02-26T05:33:32;13.95;;;9.57;;
72325;SDS011;60278;47.980;18.780;2024-02-26T05:36:34;15.73;;;9.48;;
72325;SDS011;60278;47.980;18.780;2024-02-26T05:39:36;14.45;;;10.40;;
72325;SDS011;60278;47.980;18.780;2024-02-26T05:42:39;9.43;;;6.03;;
72325;SDS011;60278;47.980;18.780;2024-02-26T05:45:41;12.73;;;6.80;;
72325;SDS011;60278;47.980;18.780;2024-02-26T05:48:47;9.32;;;6.15;;
72325;SDS011;60278;47.980;18.780;2024-02-26T05:51:49;9.88;;;5.53;;
72325;SDS011;60278;47.980;18.780;2024-02-26T05:54:51;8.38;;;5.05;;
72325;SDS011;60278;47.980;18.780;2024-02-26T05:57:53;8.87;;;5.10;;
72325;SDS011;60278;47.980;18.780;2024-02-26T06:00:55;14.10;;;5.88;;
72325;SDS011;60278;47.980;18.780;2024-02-26T06:04:00;8.93;;;5.28;;
72325;SDS011;60278;47.980;18.780;2024-02-26T06:07:02;9.63;;;5.57;;
72325;SDS011;60278;47.980;18.780;2024-02-26T06:10:04;11.05;;;6.85;;
72325;SDS011;60278;47.980;18.780;2024-02-26T06:13:07;11.23;;;6.43;;
72325;SDS011;60278;47.980;18.780;2024-02-26T06:16:09;12.63;;;6.63;;
72325;SDS011;60278;47.980;18.780;2024-02-26T06:19:11;20.60;;;13.85;;
72325;SDS011;60278;47.980;18.780;2024-02-26T06:22:15;14.13;;;9.52;;
72325;SDS011;60278;47.980;18.780;2024-02-26T06:25:17;23.05;;;17.63;;
72325;SDS011;60278;47.980;18.780;2024-02-26T06:28:19;14.57;;;10.93;;
72325;SDS011;60278;47.980;18.780;2024-02-26T06:31:21;15.57;;;10.68;;
72325;SDS011;60278;47.980;18.780;2024-02-26T06:34:24;13.27;;;9.00;;
72325;SDS011;60278;47.980;18.780;2024-02-26T06:37:26;13.85;;;9.27;;
72325;SDS011;60278;47.980;18.780;2024-02-26T06:40:28;14.68;;;8.57;;
72325;SDS011;60278;47.980;18.780;2024-02-26T06:43:30;13.33;;;8.07;;
72325;SDS011;60278;47.980;18.780;2024-02-26T06:46:32;11.20;;;7.78;;
72325;SDS011;60278;47.980;18.780;2024-02-26T06:49:34;15.82;;;8.75;;
72325;SDS011;60278;47.980;18.780;2024-02-26T06:52:37;14.90;;;8.40;;
72325;SDS011;60278;47.980;18.780;2024-02-26T06:55:39;16.23;;;9.07;;
72325;SDS011;60278;47.980;18.780;2024-02-26T06:58:42;10.80;;;6.73;;
72325;SDS011;60278;47.980;18.780;2024-02-26T07:01:46;14.02;;;8.52;;
72325;SDS011;60278;47.980;18.780;2024-02-26T07:04:48;13.48;;;7.78;;
72325;SDS011;60278;47.980;18.780;2024-02-26T07:07:50;12.95;;;7.55;;
72325;SDS011;60278;47.980;18.780;2024-02-26T07:10:52;15.15;;;8.35;;
72325;SDS011;60278;47.980;18.780;2024-02-26T07:13:54;16.43;;;9.37;;
72325;SDS011;60278;47.980;18.780;2024-02-26T07:16:56;16.95;;;10.10;;
72325;SDS011;60278;47.980;18.780;2024-02-26T07:20:00;15.32;;;8.80;;
72325;SDS011;60278;47.980;18.780;2024-02-26T07:23:04;11.10;;;7.97;;
72325;SDS011;60278;47.980;18.780;2024-02-26T07:26:06;14.43;;;8.80;;
72325;SDS011;60278;47.980;18.780;2024-02-26T07:29:10;14.83;;;9.60;;
72325;SDS011;60278;47.980;18.780;2024-02-26T07:32:12;18.73;;;10.57;;
72325;SDS011;60278;47.980;18.780;2024-02-26T07:35:15;25.88;;;13.07;;
72325;SDS011;60278;47.980;18.780;2024-02-26T07:38:18;23.20;;;12.68;;
72325;SDS011;60278;47.980;18.780;2024-02-26T07:41:37;17.90;;;10.48;;
72325;SDS011;60278;47.980;18.780;2024-02-26T07:44:40;34.33;;;16.70;;
72325;SDS011;60278;47.980;18.780;2024-02-26T07:47:45;73.72;;;28.67;;
72325;SDS011;60278;47.980;18.780;2024-02-26T07:50:48;38.60;;;22.33;;
72325;SDS011;60278;47.980;18.780;2024-02-26T07:53:50;26.90;;;18.48;;
72325;SDS011;60278;47.980;18.780;2024-02-26T07:56:54;22.58;;;15.20;;
72325;SDS011;60278;47.980;18.780;2024-02-26T08:00:00;21.33;;;12.00;;
72325;SDS011;60278;47.980;18.780;2024-02-26T08:03:02;20.08;;;13.05;;
72325;SDS011;60278;47.980;18.780;2024-02-26T08:06:04;19.75;;;12.43;;
72325;SDS011;60278;47.980;18.780;2024-02-26T08:09:09;22.88;;;13.48;;
72325;SDS011;60278;47.980;18.780;2024-02-26T08:12:11;24.27;;;15.25;;
72325;SDS011;60278;47.980;18.780;2024-02-26T08:15:13;23.00;;;12.83;;
72325;SDS011;60278;47.980;18.780;2024-02-26T08:18:15;20.58;;;13.25;;
72325;SDS011;60278;47.980;18.780;2024-02-26T08:21:18;22.52;;;14.27;;
72325;SDS011;60278;47.980;18.780;2024-02-26T08:24:20;28.10;;;16.60;;
72325;SDS011;60278;47.980;18.780;2024-02-26T08:27:22;23.52;;;13.90;;
72325;SDS011;60278;47.980;18.780;2024-02-26T08:30:26;25.67;;;16.90;;
72325;SDS011;60278;47.980;18.780;2024-02-26T08:33:29;24.65;;;16.58;;
72325;SDS011;60278;47.980;18.780;2024-02-26T08:36:32;25.30;;;17.02;;
72325;SDS011;60278;47.980;18.780;2024-02-26T08:39:35;23.88;;;15.18;;
72325;SDS011;60278;47.980;18.780;2024-02-26T08:42:37;25.63;;;15.57;;
72325;SDS011;60278;47.980;18.780;2024-02-26T08:45:39;26.17;;;15.07;;
72325;SDS011;60278;47.980;18.780;2024-02-26T08:48:41;28.50;;;15.48;;
72325;SDS011;60278;47.980;18.780;2024-02-26T08:51:44;28.40;;;15.82;;
72325;SDS011;60278;47.980;18.780;2024-02-26T08:54:47;33.35;;;20.88;;
72325;SDS011;60278;47.980;18.780;2024-02-26T08:57:49;28.70;;;16.40;;
72325;SDS011;60278;47.980;18.780;2024-02-26T09:00:51;26.53;;;15.53;;
72325;SDS011;60278;47.980;18.780;2024-02-26T09:03:53;24.58;;;15.05;;
72325;SDS011;60278;47.980;18.780;2024-02-26T09:06:55;23.92;;;14.52;;
72325;SDS011;60278;47.980;18.780;2024-02-26T09:09:57;25.67;;;16.42;;
72325;SDS011;60278;47.980;18.780;2024-02-26T09:13:00;23.40;;;13.68;;
72325;SDS011;60278;47.980;18.780;2024-02-26T09:16:02;26.57;;;15.10;;
72325;SDS011;60278;47.980;18.780;2024-02-26T09:19:04;25.08;;;15.70;;
72325;SDS011;60278;47.980;18.780;2024-02-26T09:22:07;27.08;;;14.38;;
72325;SDS011;60278;47.980;18.780;2024-02-26T09:25:09;23.05;;;14.30;;
72325;SDS011;60278;47.980;18.780;2024-02-26T09:28:11;27.73;;;15.18;;
72325;SDS011;60278;47.980;18.780;2024-02-26T09:31:13;25.80;;;15.00;;
72325;SDS011;60278;47.980;18.780;2024-02-26T09:34:18;25.75;;;15.50;;
72325;SDS011;60278;47.980;18.780;2024-02-26T09:37:20;25.13;;;15.27;;
72325;SDS011;60278;47.980;18.780;2024-02-26T09:40:23;22.65;;;12.23;;
72325;SDS011;60278;47.980;18.780;2024-02-26T09:43:25;23.67;;;13.65;;
72325;SDS011;60278;47.980;18.780;2024-02-26T09:46:30;24.13;;;13.97;;
72325;SDS011;60278;47.980;18.780;2024-02-26T09:49:33;18.52;;;11.40;;
72325;SDS011;60278;47.980;18.780;2024-02-26T09:52:36;21.92;;;13.02;;
72325;SDS011;60278;47.980;18.780;2024-02-26T09:55:39;23.95;;;13.32;;
72325;SDS011;60278;47.980;18.780;2024-02-26T09:58:42;24.33;;;13.77;;
72325;SDS011;60278;47.980;18.780;2024-02-26T10:01:44;21.97;;;12.30;;
72325;SDS011;60278;47.980;18.780;2024-02-26T10:04:48;29.90;;;15.50;;
72325;SDS011;60278;47.980;18.780;2024-02-26T10:07:53;23.83;;;14.13;;
72325;SDS011;60278;47.980;18.780;2024-02-26T10:10:57;22.88;;;12.93;;
72325;SDS011;60278;47.980;18.780;2024-02-26T10:13:59;22.55;;;12.77;;
72325;SDS011;60278;47.980;18.780;2024-02-26T10:17:01;23.40;;;14.13;;
72325;SDS011;60278;47.980;18.780;2024-02-26T10:20:11;21.23;;;12.57;;
72325;SDS011;60278;47.980;18.780;2024-02-26T10:23:13;19.25;;;12.07;;
72325;SDS011;60278;47.980;18.780;2024-02-26T10:26:15;19.63;;;12.07;;
72325;SDS011;60278;47.980;18.780;2024-02-26T10:29:20;22.58;;;13.57;;
72325;SDS011;60278;47.980;18.780;2024-02-26T10:32:22;22.93;;;13.90;;
72325;SDS011;60278;47.980;18.780;2024-02-26T10:35:25;48.22;;;22.25;;
72325;SDS011;60278;47.980;18.780;2024-02-26T10:38:29;45.38;;;20.15;;
72325;SDS011;60278;47.980;18.780;2024-02-26T10:41:32;23.70;;;14.35;;
72325;SDS011;60278;47.980;18.780;2024-02-26T10:44:34;25.55;;;15.77;;
72325;SDS011;60278;47.980;18.780;2024-02-26T10:47:36;23.17;;;14.43;;
72325;SDS011;60278;47.980;18.780;2024-02-26T10:50:39;22.45;;;14.13;;
72325;SDS011;60278;47.980;18.780;2024-02-26T10:53:41;22.13;;;14.18;;
72325;SDS011;60278;47.980;18.780;2024-02-26T10:56:44;24.10;;;15.73;;
72325;SDS011;60278;47.980;18.780;2024-02-26T10:59:48;31.50;;;18.05;;
72325;SDS011;60278;47.980;18.780;2024-02-26T11:02:51;23.20;;;15.60;;
72325;SDS011;60278;47.980;18.780;2024-02-26T11:05:53;21.70;;;14.18;;
72325;SDS011;60278;47.980;18.780;2024-02-26T11:08:56;24.08;;;15.60;;
72325;SDS011;60278;47.980;18.780;2024-02-26T11:11:58;23.02;;;14.40;;
72325;SDS011;60278;47.980;18.780;2024-02-26T11:15:01;21.55;;;14.40;;
72325;SDS011;60278;47.980;18.780;2024-02-26T11:18:04;27.80;;;16.83;;
72325;SDS011;60278;47.980;18.780;2024-02-26T11:21:06;21.05;;;14.07;;
72325;SDS011;60278;47.980;18.780;2024-02-26T11:24:11;22.17;;;13.98;;
72325;SDS011;60278;47.980;18.780;2024-02-26T11:27:15;23.13;;;15.10;;
72325;SDS011;60278;47.980;18.780;2024-02-26T11:30:19;22.90;;;15.75;;
72325;SDS011;60278;47.980;18.780;2024-02-26T11:33:24;25.27;;;16.07;;
72325;SDS011;60278;47.980;18.780;2024-02-26T11:36:27;22.38;;;14.35;;
72325;SDS011;60278;47.980;18.780;2024-02-26T11:39:29;21.60;;;14.43;;
72325;SDS011;60278;47.980;18.780;2024-02-26T11:42:43;21.75;;;13.38;;
72325;SDS011;60278;47.980;18.780;2024-02-26T11:48:48;19.13;;;13.27;;
72325;SDS011;60278;47.980;18.780;2024-02-26T11:51:51;18.83;;;13.00;;
72325;SDS011;60278;47.980;18.780;2024-02-26T11:54:54;38.35;;;20.25;;
72325;SDS011;60278;47.980;18.780;2024-02-26T11:57:57;24.27;;;15.27;;
72325;SDS011;60278;47.980;18.780;2024-02-26T12:00:59;25.23;;;16.52;;
72325;SDS011;60278;47.980;18.780;2024-02-26T12:04:02;25.83;;;15.93;;
72325;SDS011;60278;47.980;18.780;2024-02-26T12:07:06;24.25;;;14.27;;
72325;SDS011;60278;47.980;18.780;2024-02-26T12:10:14;20.25;;;14.30;;
72325;SDS011;60278;47.980;18.780;2024-02-26T12:13:17;23.08;;;13.82;;
72325;SDS011;60278;47.980;18.780;2024-02-26T12:16:42;36.88;;;19.80;;
72325;SDS011;60278;47.980;18.780;2024-02-26T12:19:46;38.53;;;20.50;;
72325;SDS011;60278;47.980;18.780;2024-02-26T12:22:49;21.02;;;14.68;;
72325;SDS011;60278;47.980;18.780;2024-02-26T12:25:51;19.55;;;13.68;;
72325;SDS011;60278;47.980;18.780;2024-02-26T12:28:53;16.55;;;11.77;;
72325;SDS011;60278;47.980;18.780;2024-02-26T12:31:55;19.55;;;14.63;;
72325;SDS011;60278;47.980;18.780;2024-02-26T12:34:58;20.10;;;13.37;;
72325;SDS011;60278;47.980;18.780;2024-02-26T12:38:01;20.90;;;13.40;;
72325;SDS011;60278;47.980;18.780;2024-02-26T12:41:06;18.10;;;13.30;;
72325;SDS011;60278;47.980;18.780;2024-02-26T12:44:08;24.30;;;14.65;;
72325;SDS011;60278;47.980;18.780;2024-02-26T12:47:11;20.38;;;13.45;;
72325;SDS011;60278;47.980;18.780;2024-02-26T12:50:18;37.80;;;17.20;;
72325;SDS011;60278;47.980;18.780;2024-02-26T12:53:23;24.95;;;15.73;;
72325;SDS011;60278;47.980;18.780;2024-02-26T12:56:25;19.15;;;13.25;;
72325;SDS011;60278;47.980;18.780;2024-02-26T12:59:27;16.45;;;11.13;;
72325;SDS011;60278;47.980;18.780;2024-02-26T13:02:30;17.00;;;11.52;;
72325;SDS011;60278;47.980;18.780;2024-02-26T13:05:33;35.00;;;17.30;;
72325;SDS011;60278;47.980;18.780;2024-02-26T13:08:35;19.35;;;12.68;;
72325;SDS011;60278;47.980;18.780;2024-02-26T13:11:39;20.73;;;12.75;;
72325;SDS011;60278;47.980;18.780;2024-02-26T13:14:41;23.27;;;14.95;;
72325;SDS011;60278;47.980;18.780;2024-02-26T13:17:43;21.35;;;15.48;;
72325;SDS011;60278;47.980;18.780;2024-02-26T13:20:46;24.20;;;15.67;;
72325;SDS011;60278;47.980;18.780;2024-02-26T13:23:51;32.92;;;18.52;;
72325;SDS011;60278;47.980;18.780;2024-02-26T13:26:54;29.02;;;17.25;;
72325;SDS011;60278;47.980;18.780;2024-02-26T13:33:08;28.63;;;19.20;;
72325;SDS011;60278;47.980;18.780;2024-02-26T13:36:11;28.10;;;18.53;;
72325;SDS011;60278;47.980;18.780;2024-02-26T13:39:21;32.65;;;20.65;;
72325;SDS011;60278;47.980;18.780;2024-02-26T13:42:25;29.08;;;19.23;;
72325;SDS011;60278;47.980;18.780;2024-02-26T13:45:27;26.13;;;18.23;;
72325;SDS011;60278;47.980;18.780;2024-02-26T13:48:38;26.83;;;18.92;;
72325;SDS011;60278;47.980;18.780;2024-02-26T13:51:40;29.67;;;19.33;;
72325;SDS011;60278;47.980;18.780;2024-02-26T13:54:43;30.52;;;19.63;;
72325;SDS011;60278;47.980;18.780;2024-02-26T13:57:45;23.90;;;16.70;;
72325;SDS011;60278;47.980;18.780;2024-02-26T14:00:47;27.10;;;17.13;;
72325;SDS011;60278;47.980;18.780;2024-02-26T14:03:49;24.73;;;17.17;;
72325;SDS011;60278;47.980;18.780;2024-02-26T14:06:54;23.33;;;16.20;;
72325;SDS011;60278;47.980;18.780;2024-02-26T14:09:56;27.05;;;18.63;;
72325;SDS011;60278;47.980;18.780;2024-02-26T14:12:59;24.48;;;16.60;;
72325;SDS011;60278;47.980;18.780;2024-02-26T14:16:02;22.95;;;16.92;;
72325;SDS011;60278;47.980;18.780;2024-02-26T14:19:04;25.17;;;17.10;;
72325;SDS011;60278;47.980;18.780;2024-02-26T14:22:06;28.47;;;16.70;;
72325;SDS011;60278;47.980;18.780;2024-02-26T14:25:08;28.98;;;16.92;;
72325;SDS011;60278;47.980;18.780;2024-02-26T14:28:11;28.25;;;19.17;;
72325;SDS011;60278;47.980;18.780;2024-02-26T14:31:22;32.45;;;18.90;;
72325;SDS011;60278;47.980;18.780;2024-02-26T14:34:26;25.75;;;15.27;;
72325;SDS011;60278;47.980;18.780;2024-02-26T14:37:29;24.77;;;16.53;;
72325;SDS011;60278;47.980;18.780;2024-02-26T14:40:31;25.45;;;16.63;;
72325;SDS011;60278;47.980;18.780;2024-02-26T14:43:34;27.67;;;16.80;;
72325;SDS011;60278;47.980;18.780;2024-02-26T14:46:37;26.75;;;18.13;;
72325;SDS011;60278;47.980;18.780;2024-02-26T14:49:39;23.05;;;15.70;;
72325;SDS011;60278;47.980;18.780;2024-02-26T14:52:43;22.07;;;14.67;;
72325;SDS011;60278;47.980;18.780;2024-02-26T14:55:45;21.50;;;15.27;;
72325;SDS011;60278;47.980;18.780;2024-02-26T14:58:47;26.25;;;16.50;;
72325;SDS011;60278;47.980;18.780;2024-02-26T15:01:49;22.80;;;14.52;;
72325;SDS011;60278;47.980;18.780;2024-02-26T15:04:52;28.92;;;17.15;;
72325;SDS011;60278;47.980;18.780;2024-02-26T15:07:54;24.03;;;16.00;;
72325;SDS011;60278;47.980;18.780;2024-02-26T15:10:56;25.33;;;14.85;;
72325;SDS011;60278;47.980;18.780;2024-02-26T15:13:58;22.05;;;15.60;;
72325;SDS011;60278;47.980;18.780;2024-02-26T15:17:00;24.88;;;15.63;;
72325;SDS011;60278;47.980;18.780;2024-02-26T15:20:02;23.55;;;16.00;;
72325;SDS011;60278;47.980;18.780;2024-02-26T15:23:05;25.13;;;17.23;;
72325;SDS011;60278;47.980;18.780;2024-02-26T15:26:08;25.63;;;16.38;;
72325;SDS011;60278;47.980;18.780;2024-02-26T15:29:10;23.50;;;15.55;;
72325;SDS011;60278;47.980;18.780;2024-02-26T15:32:12;22.85;;;15.30;;
72325;SDS011;60278;47.980;18.780;2024-02-26T15:35:15;24.50;;;17.63;;
72325;SDS011;60278;47.980;18.780;2024-02-26T15:38:17;24.40;;;14.73;;
72325;SDS011;60278;47.980;18.780;2024-02-26T15:41:22;23.02;;;15.30;;
72325;SDS011;60278;47.980;18.780;2024-02-26T15:44:24;22.27;;;15.15;;
72325;SDS011;60278;47.980;18.780;2024-02-26T15:47:26;25.67;;;17.23;;
72325;SDS011;60278;47.980;18.780;2024-02-26T15:50:29;23.30;;;15.95;;
72325;SDS011;60278;47.980;18.780;2024-02-26T15:53:31;26.60;;;18.13;;
72325;SDS011;60278;47.980;18.780;2024-02-26T15:56:33;26.50;;;17.65;;
72325;SDS011;60278;47.980;18.780;2024-02-26T15:59:37;31.80;;;21.92;;
72325;SDS011;60278;47.980;18.780;2024-02-26T16:02:39;28.08;;;19.73;;
72325;SDS011;60278;47.980;18.780;2024-02-26T16:05:42;37.00;;;22.80;;
72325;SDS011;60278;47.980;18.780;2024-02-26T16:08:44;31.77;;;20.77;;
72325;SDS011;60278;47.980;18.780;2024-02-26T16:11:46;36.08;;;24.80;;
72325;SDS011;60278;47.980;18.780;2024-02-26T16:14:49;37.20;;;23.75;;
72325;SDS011;60278;47.980;18.780;2024-02-26T16:17:52;40.03;;;25.65;;
72325;SDS011;60278;47.980;18.780;2024-02-26T16:20:57;71.82;;;43.38;;
72325;SDS011;60278;47.980;18.780;2024-02-26T16:24:00;51.00;;;31.43;;
72325;SDS011;60278;47.980;18.780;2024-02-26T16:27:02;36.55;;;24.70;;
72325;SDS011;60278;47.980;18.780;2024-02-26T16:30:05;53.58;;;32.63;;
72325;SDS011;60278;47.980;18.780;2024-02-26T16:33:08;44.35;;;28.88;;
72325;SDS011;60278;47.980;18.780;2024-02-26T16:36:10;35.10;;;24.70;;
72325;SDS011;60278;47.980;18.780;2024-02-26T16:39:14;34.97;;;24.63;;
72325;SDS011;60278;47.980;18.780;2024-02-26T16:42:16;35.95;;;24.58;;
72325;SDS011;60278;47.980;18.780;2024-02-26T16:45:19;39.45;;;26.70;;
72325;SDS011;60278;47.980;18.780;2024-02-26T16:48:22;52.05;;;31.25;;
72325;SDS011;60278;47.980;18.780;2024-02-26T16:51:24;50.85;;;33.80;;
72325;SDS011;60278;47.980;18.780;2024-02-26T16:54:27;51.13;;;33.43;;
72325;SDS011;60278;47.980;18.780;2024-02-26T16:57:29;52.35;;;34.15;;
72325;SDS011;60278;47.980;18.780;2024-02-26T17:00:34;48.67;;;33.63;;
72325;SDS011;60278;47.980;18.780;2024-02-26T17:03:37;47.10;;;33.38;;
72325;SDS011;60278;47.980;18.780;2024-02-26T17:06:39;50.88;;;34.17;;
72325;SDS011;60278;47.980;18.780;2024-02-26T17:09:41;48.17;;;33.43;;
72325;SDS011;60278;47.980;18.780;2024-02-26T17:12:44;53.25;;;34.35;;
72325;SDS011;60278;47.980;18.780;2024-02-26T17:15:47;49.72;;;33.85;;
72325;SDS011;60278;47.980;18.780;2024-02-26T17:18:49;52.33;;;33.00;;
72325;SDS011;60278;47.980;18.780;2024-02-26T17:21:52;53.70;;;35.40;;
72325;SDS011;60278;47.980;18.780;2024-02-26T17:24:55;53.47;;;34.77;;
72325;SDS011;60278;47.980;18.780;2024-02-26T17:27:57;48.10;;;31.90;;
72325;SDS011;60278;47.980;18.780;2024-02-26T17:30:59;54.03;;;32.92;;
72325;SDS011;60278;47.980;18.780;2024-02-26T17:34:01;52.58;;;34.20;;
72325;SDS011;60278;47.980;18.780;2024-02-26T17:37:04;50.10;;;34.47;;
72325;SDS011;60278;47.980;18.780;2024-02-26T17:40:06;60.37;;;40.63;;
72325;SDS011;60278;47.980;18.780;2024-02-26T17:43:09;66.70;;;42.83;;